Time;durP1;ratioP1;P1;durP2;ratioP2;P2;SDS_P1;SDS_P2;PMS_P1;PMS_P2;Temp;Humidity;BMP_temperature;BMP_pressure;BME280_temperature;BME280_humidity;BME280_pressure;Samples;Min_cycle;Max_cycle;Signal;HPM_P1;HPM_P2
2022/11/26 00:00:39;;;;;;;8.90;6.60;;;7.30;99.90;;;;;;5023805;28;20480;-64
2022/11/26 00:03:05;;;;;;;10.97;7.30;;;7.30;99.90;;;;;;5010963;28;20412;-64
2022/11/26 00:05:31;;;;;;;10.60;6.50;;;7.30;99.90;;;;;;5011137;28;20241;-64
2022/11/26 00:07:59;;;;;;;11.90;6.73;;;7.30;99.90;;;;;;5010356;28;20200;-64
2022/11/26 00:10:28;;;;;;;12.30;6.57;;;7.30;99.90;;;;;;5010290;28;20411;-64
2022/11/26 00:12:55;;;;;;;12.70;5.80;;;7.30;99.90;;;;;;5010817;28;20423;-64
2022/11/26 00:15:27;;;;;;;16.03;6.47;;;7.30;99.90;;;;;;5010533;28;20754;-64
2022/11/26 00:17:53;;;;;;;17.23;6.07;;;7.30;99.90;;;;;;5010736;28;20407;-64
2022/11/26 00:20:23;;;;;;;14.03;6.23;;;7.30;99.90;;;;;;5010482;28;20445;-64
2022/11/26 00:22:52;;;;;;;16.17;6.40;;;7.30;99.90;;;;;;5009932;28;21227;-64
2022/11/26 00:25:37;;;;;;;18.37;7.10;;;7.40;99.90;;;;;;5010823;28;20438;-64
2022/11/26 00:28:10;;;;;;;11.80;5.23;;;7.30;99.90;;;;;;5010245;28;20486;-64
2022/11/26 00:30:35;;;;;;;14.43;5.70;;;7.40;99.90;;;;;;5009582;28;20409;-64
2022/11/26 00:33:01;;;;;;;12.80;6.30;;;7.40;99.90;;;;;;5010332;28;20411;-64
2022/11/26 00:35:26;;;;;;;7.70;5.30;;;7.40;99.90;;;;;;5010084;28;20331;-64
2022/11/26 00:37:55;;;;;;;6.00;5.40;;;7.30;99.90;;;;;;5009972;28;20178;-64
2022/11/26 00:40:32;;;;;;;6.87;5.50;;;7.30;99.90;;;;;;5010114;28;20188;-64
2022/11/26 00:42:58;;;;;;;11.20;5.27;;;7.10;99.90;;;;;;5010411;28;20792;-64
2022/11/26 00:45:29;;;;;;;9.43;5.80;;;7.20;1.00;;;;;;5010268;28;20554;-64
2022/11/26 00:47:59;;;;;;;17.90;6.53;;;7.30;1.00;;;;;;5010033;28;20541;-64
2022/11/26 00:50:26;;;;;;;11.73;6.00;;;7.40;99.90;;;;;;5009765;28;20411;-64
2022/11/26 00:52:54;;;;;;;12.40;5.43;;;7.40;99.90;;;;;;5009572;28;20411;-64
2022/11/26 00:55:29;;;;;;;7.90;4.90;;;7.40;99.90;;;;;;5009956;28;20433;-64
2022/11/26 00:57:55;;;;;;;7.43;5.10;;;7.40;99.90;;;;;;5009899;28;20481;-64
2022/11/26 01:00:27;;;;;;;5.80;5.00;;;7.20;99.90;;;;;;5013418;28;20426;-64
2022/11/26 01:02:54;;;;;;;10.73;4.83;;;7.20;99.90;;;;;;5029776;28;20438;-63
2022/11/26 01:05:21;;;;;;;7.33;5.83;;;7.20;99.90;;;;;;5029990;28;20966;-64
2022/11/26 01:07:47;;;;;;;14.63;6.40;;;7.30;99.90;;;;;;5029129;28;20462;-64
2022/11/26 01:10:22;;;;;;;14.47;6.33;;;7.30;99.90;;;;;;5029522;28;20445;-64
2022/11/26 01:12:49;;;;;;;11.10;6.77;;;7.30;99.90;;;;;;5029550;28;20421;-64
2022/11/26 01:15:15;;;;;;;8.47;4.80;;;7.30;99.90;;;;;;5029914;28;20493;-64
2022/11/26 01:17:41;;;;;;;11.67;6.03;;;7.30;99.90;;;;;;5029687;28;20418;-64
2022/11/26 01:20:24;;;;;;;8.23;5.70;;;7.30;99.90;;;;;;5029825;28;20410;-64
2022/11/26 01:22:50;;;;;;;10.20;5.50;;;7.30;99.90;;;;;;5029159;28;20418;-64
2022/11/26 01:25:17;;;;;;;20.40;6.17;;;7.30;99.90;;;;;;5029849;28;20606;-63
2022/11/26 01:27:43;;;;;;;7.83;5.77;;;7.30;99.90;;;;;;5029322;28;20801;-64
2022/11/26 01:30:31;;;;;;;19.00;6.20;;;7.30;99.90;;;;;;5029488;28;20852;-64
2022/11/26 01:32:58;;;;;;;14.00;6.40;;;7.30;99.90;;;;;;5030895;28;20837;-64
2022/11/26 01:35:24;;;;;;;12.80;5.77;;;7.30;99.90;;;;;;5033524;28;20963;-63
2022/11/26 01:37:49;;;;;;;7.33;5.53;;;7.20;99.90;;;;;;5032952;28;20457;-63
2022/11/26 01:40:24;;;;;;;5.93;4.87;;;7.20;99.90;;;;;;5033516;28;20179;-63
2022/11/26 01:43:22;;;;;;;8.83;5.60;;;7.20;99.90;;;;;;5033063;28;20730;-63
2022/11/26 01:45:48;;;;;;;10.60;6.40;;;7.20;99.90;;;;;;5032237;22;21080;-67
2022/11/26 01:48:39;;;;;;;8.90;5.90;;;7.20;99.90;;;;;;5014085;28;20485;-66
2022/11/26 01:51:07;;;;;;;10.27;6.17;;;7.20;99.90;;;;;;5020662;28;20215;-65
2022/11/26 01:53:54;;;;;;;6.20;5.47;;;7.30;99.90;;;;;;5013675;28;20446;-64
2022/11/26 01:56:42;;;;;;;29.63;7.27;;;7.20;99.90;;;;;;5013764;28;20426;-67
2022/11/26 01:59:14;;;;;;;17.60;6.27;;;7.30;99.90;;;;;;5013517;28;20778;-65
2022/11/26 02:01:40;;;;;;;9.70;5.83;;;7.20;99.90;;;;;;5012486;28;20419;-64
2022/11/26 02:04:25;;;;;;;13.87;6.03;;;7.20;99.90;;;;;;5013352;28;20488;-64
2022/11/26 02:06:54;;;;;;;11.40;5.70;;;7.20;99.90;;;;;;5013366;28;20295;-67
2022/11/26 02:09:20;;;;;;;13.77;6.30;;;7.10;99.90;;;;;;5011465;28;20494;-66
2022/11/26 02:11:46;;;;;;;18.17;5.80;;;7.10;99.90;;;;;;5012534;28;20407;-66
2022/11/26 02:14:17;;;;;;;12.50;6.20;;;7.20;99.90;;;;;;5012958;28;20434;-66
2022/11/26 02:17:13;;;;;;;10.70;5.73;;;7.20;99.90;;;;;;5013477;28;20192;-66
2022/11/26 02:19:45;;;;;;;8.40;5.40;;;7.20;99.90;;;;;;5013447;28;20792;-66
2022/11/26 02:22:25;;;;;;;9.27;5.97;;;7.20;99.90;;;;;;5012053;28;20423;-66
2022/11/26 02:25:24;;;;;;;10.10;5.73;;;7.10;99.90;;;;;;5012984;28;20415;-65
2022/11/26 02:28:17;;;;;;;11.17;5.53;;;7.20;99.90;;;;;;5012767;28;20466;-65
2022/11/26 02:30:59;;;;;;;7.93;5.27;;;7.20;99.90;;;;;;5012105;28;20783;-65
2022/11/26 02:34:00;;;;;;;7.87;5.73;;;7.20;99.90;;;;;;5012549;28;20418;-65
2022/11/26 02:36:45;;;;;;;9.30;5.83;;;7.20;99.90;;;;;;4984613;28;20776;-64
2022/11/26 02:39:17;;;;;;;7.57;4.90;;;7.20;99.90;;;;;;5012215;28;20417;-62
2022/11/26 02:41:45;;;;;;;8.00;5.80;;;7.30;99.90;;;;;;5012119;28;20460;-66
2022/11/26 02:44:12;;;;;;;8.30;5.67;;;7.30;99.90;;;;;;5012032;28;20422;-64
2022/11/26 02:46:40;;;;;;;10.93;6.43;;;7.20;99.90;;;;;;5012497;28;20525;-65
2022/11/26 02:49:08;;;;;;;12.40;6.13;;;7.20;99.90;;;;;;5012261;28;20911;-65
2022/11/26 02:51:34;;;;;;;16.37;5.80;;;7.20;99.90;;;;;;5011823;28;20403;-66
2022/11/26 02:54:00;;;;;;;12.30;5.80;;;7.10;99.90;;;;;;5011806;28;20419;-65
2022/11/26 02:56:28;;;;;;;12.93;6.37;;;7.20;99.90;;;;;;5012438;28;20207;-64
2022/11/26 02:58:55;;;;;;;13.47;6.50;;;7.20;99.90;;;;;;5012536;28;20437;-66
2022/11/26 03:01:32;;;;;;;8.70;6.40;;;7.20;99.90;;;;;;5011793;28;20415;-66
2022/11/26 03:04:03;;;;;;;12.53;5.80;;;7.30;99.90;;;;;;5013010;28;20493;-66
2022/11/26 03:06:31;;;;;;;9.00;5.83;;;7.30;99.90;;;;;;5018341;28;21052;-64
2022/11/26 03:08:58;;;;;;;7.80;5.63;;;7.30;99.90;;;;;;5010297;28;20465;-64
2022/11/26 03:11:23;;;;;;;7.73;5.37;;;7.20;99.90;;;;;;5011624;28;20407;-65
2022/11/26 03:13:49;;;;;;;7.67;5.27;;;7.10;99.90;;;;;;5011668;28;20542;-65
2022/11/26 03:16:15;;;;;;;7.97;5.63;;;7.10;99.90;;;;;;5012189;28;20255;-65
2022/11/26 03:18:41;;;;;;;8.67;5.60;;;7.00;99.90;;;;;;5011805;28;20225;-65
2022/11/26 03:21:07;;;;;;;6.43;5.50;;;7.00;99.90;;;;;;5011021;28;20747;-65
2022/11/26 03:23:33;;;;;;;8.93;5.93;;;7.00;99.90;;;;;;5011424;28;20423;-68
2022/11/26 03:25:59;;;;;;;7.10;5.27;;;7.00;99.90;;;;;;5011841;28;20947;-67
2022/11/26 03:28:25;;;;;;;7.53;5.53;;;7.00;99.90;;;;;;5010434;28;20414;-66
2022/11/26 03:30:52;;;;;;;7.43;5.27;;;7.00;99.90;;;;;;5010784;28;20628;-66
2022/11/26 03:33:18;;;;;;;15.13;6.27;;;6.90;1.00;;;;;;5011415;28;20172;-66
2022/11/26 03:35:46;;;;;;;10.83;4.83;;;6.90;1.00;;;;;;5011626;28;20458;-66
2022/11/26 03:38:11;;;;;;;10.70;6.07;;;7.00;1.00;;;;;;5011207;28;20411;-67
2022/11/26 03:40:37;;;;;;;7.47;5.57;;;6.90;1.00;;;;;;5010620;28;20931;-65
2022/11/26 03:43:03;;;;;;;8.50;5.33;;;6.90;1.00;;;;;;5011418;28;20200;-65
2022/11/26 03:45:29;;;;;;;8.60;5.53;;;6.90;1.00;;;;;;5011416;28;20822;-66
2022/11/26 03:47:54;;;;;;;9.03;5.03;;;6.90;1.00;;;;;;5011354;28;20613;-66
2022/11/26 03:50:20;;;;;;;7.30;5.40;;;6.90;1.00;;;;;;5010972;28;20176;-67
2022/11/26 03:52:46;;;;;;;12.53;6.70;;;6.90;1.00;;;;;;5010498;28;20247;-66
2022/11/26 03:55:11;;;;;;;6.03;5.43;;;6.90;1.00;;;;;;5010988;28;20180;-66
2022/11/26 03:57:37;;;;;;;9.80;5.37;;;6.90;1.00;;;;;;5011119;28;20656;-65
2022/11/26 04:00:05;;;;;;;8.60;5.50;;;6.90;1.00;;;;;;5010028;28;20618;-66
2022/11/26 04:02:31;;;;;;;8.33;6.10;;;6.90;1.00;;;;;;4990461;28;20235;-66
2022/11/26 04:04:57;;;;;;;12.13;4.97;;;6.90;1.00;;;;;;4991770;28;20419;-66
2022/11/26 04:07:23;;;;;;;7.73;5.50;;;6.90;1.00;;;;;;4991519;28;20468;-67
2022/11/26 04:09:49;;;;;;;8.97;5.80;;;6.90;99.90;;;;;;4991145;28;20251;-66
2022/11/26 04:12:14;;;;;;;11.73;6.00;;;6.90;1.00;;;;;;4990742;28;20319;-66
2022/11/26 04:14:41;;;;;;;11.37;5.30;;;6.90;1.00;;;;;;4991500;28;20169;-65
2022/11/26 04:17:07;;;;;;;10.80;5.73;;;6.80;1.00;;;;;;4991344;28;20197;-66
2022/11/26 04:19:32;;;;;;;19.03;6.23;;;6.70;1.00;;;;;;4991487;28;20415;-66
2022/11/26 04:21:58;;;;;;;15.00;7.10;;;6.80;1.00;;;;;;4990491;28;20177;-67
2022/11/26 04:24:23;;;;;;;9.23;5.47;;;7.00;1.00;;;;;;4991072;28;20205;-67
2022/11/26 04:26:49;;;;;;;8.10;5.13;;;7.00;99.90;;;;;;4990990;28;20197;-67
2022/11/26 04:29:15;;;;;;;8.10;5.57;;;7.00;99.90;;;;;;4991295;28;20550;-66
2022/11/26 04:31:40;;;;;;;9.87;5.33;;;6.90;99.90;;;;;;4990262;28;20173;-66
2022/11/26 04:34:06;;;;;;;8.67;5.30;;;7.00;99.90;;;;;;4991004;28;20173;-66
2022/11/26 04:36:33;;;;;;;7.93;5.20;;;7.00;99.90;;;;;;4991243;28;20254;-66
2022/11/26 04:38:58;;;;;;;7.83;5.90;;;7.00;99.90;;;;;;4990926;28;20165;-65
2022/11/26 04:41:25;;;;;;;7.67;5.10;;;7.00;99.90;;;;;;4990033;28;20420;-66
2022/11/26 04:43:50;;;;;;;11.33;5.57;;;6.80;99.90;;;;;;4990331;28;20177;-63
2022/11/26 04:46:16;;;;;;;6.33;5.10;;;6.90;1.00;;;;;;4990812;28;20460;-66
2022/11/26 04:48:42;;;;;;;13.37;5.90;;;7.10;99.90;;;;;;4990832;28;20206;-65
2022/11/26 04:51:07;;;;;;;13.00;5.30;;;7.10;99.90;;;;;;4990057;28;20587;-66
2022/11/26 04:53:33;;;;;;;7.60;4.50;;;7.10;99.90;;;;;;4990037;28;20184;-65
2022/11/26 04:55:59;;;;;;;9.50;5.50;;;7.10;99.90;;;;;;4990952;28;20199;-66
2022/11/26 04:58:24;;;;;;;6.40;4.50;;;7.10;99.90;;;;;;4990615;28;20169;-66
2022/11/26 05:00:50;;;;;;;10.27;4.90;;;7.00;99.90;;;;;;4997418;28;20340;-66
2022/11/26 05:03:16;;;;;;;12.13;4.80;;;7.10;99.90;;;;;;5010302;28;20176;-66
2022/11/26 05:05:42;;;;;;;9.90;4.73;;;7.00;99.90;;;;;;5010405;28;20430;-67
2022/11/26 05:08:08;;;;;;;17.50;6.70;;;7.00;99.90;;;;;;5008891;28;20467;-66
2022/11/26 05:10:34;;;;;;;9.10;5.00;;;7.00;99.90;;;;;;5009480;28;20208;-65
2022/11/26 05:12:59;;;;;;;6.93;4.30;;;7.00;99.90;;;;;;5009776;28;20165;-66
2022/11/26 05:15:25;;;;;;;8.90;4.73;;;7.00;99.90;;;;;;5010332;28;20404;-66
2022/11/26 05:17:51;;;;;;;8.07;4.30;;;6.90;99.90;;;;;;5010205;28;20183;-66
2022/11/26 05:20:17;;;;;;;5.53;4.47;;;6.90;99.90;;;;;;5010074;28;20415;-67
2022/11/26 05:22:43;;;;;;;14.73;5.67;;;6.90;99.90;;;;;;5009494;28;20184;-66
2022/11/26 05:25:09;;;;;;;7.53;5.07;;;6.90;99.90;;;;;;5018685;28;20651;-67
2022/11/26 05:27:35;;;;;;;9.07;5.43;;;7.00;99.90;;;;;;5008006;28;20215;-66
2022/11/26 05:30:02;;;;;;;6.77;4.77;;;6.90;99.90;;;;;;5008167;28;20431;-67
2022/11/26 05:32:27;;;;;;;11.60;6.23;;;6.90;99.90;;;;;;5020162;28;20892;-66
2022/11/26 05:34:53;;;;;;;6.40;4.40;;;6.90;99.90;;;;;;5006948;28;20419;-64
2022/11/26 05:37:19;;;;;;;5.60;4.50;;;6.90;99.90;;;;;;5009814;28;20410;-66
2022/11/26 05:39:45;;;;;;;7.00;4.83;;;6.90;99.90;;;;;;5009583;28;20176;-65
2022/11/26 05:42:10;;;;;;;7.90;5.13;;;6.90;99.90;;;;;;5007262;28;20613;-63
2022/11/26 05:44:36;;;;;;;13.63;5.80;;;6.90;99.90;;;;;;5007425;28;20186;-66
2022/11/26 05:47:02;;;;;;;10.97;5.23;;;6.80;99.90;;;;;;5008966;28;20568;-66
2022/11/26 05:49:28;;;;;;;8.43;5.70;;;6.80;99.90;;;;;;5007073;28;20453;-67
2022/11/26 05:51:54;;;;;;;10.63;4.57;;;6.90;99.90;;;;;;5007174;28;20183;-65
2022/11/26 05:54:19;;;;;;;11.53;4.87;;;6.90;99.90;;;;;;5008355;28;20176;-64
2022/11/26 05:56:45;;;;;;;12.97;5.37;;;6.80;99.90;;;;;;5008512;28;20211;-64
2022/11/26 05:59:11;;;;;;;19.03;5.53;;;6.80;99.90;;;;;;5008931;28;20586;-63
2022/11/26 06:01:36;;;;;;;13.00;5.10;;;6.80;99.90;;;;;;5007383;28;20191;-64
2022/11/26 06:04:02;;;;;;;10.80;5.03;;;6.80;99.90;;;;;;5009401;28;20252;-65
2022/11/26 06:06:29;;;;;;;16.83;5.07;;;6.80;99.90;;;;;;5009017;28;20201;-64
2022/11/26 06:08:54;;;;;;;27.07;6.80;;;6.80;1.00;;;;;;5008313;28;20850;-66
2022/11/26 06:11:20;;;;;;;7.73;4.80;;;6.70;1.00;;;;;;5008967;28;20499;-65
2022/11/26 06:13:46;;;;;;;6.73;5.33;;;6.70;1.00;;;;;;5009312;28;20168;-65
2022/11/26 06:16:11;;;;;;;11.00;5.27;;;6.80;1.00;;;;;;5009484;28;20212;-65
2022/11/26 06:18:37;;;;;;;9.20;4.57;;;6.80;99.90;;;;;;5011289;28;20169;-66
2022/11/26 06:21:05;;;;;;;15.10;5.37;;;6.80;99.90;;;;;;5012627;28;20169;-64
2022/11/26 06:23:32;;;;;;;14.13;5.30;;;6.80;99.90;;;;;;5011973;28;20493;-65
2022/11/26 06:25:58;;;;;;;14.43;6.13;;;6.80;99.90;;;;;;5013996;28;20476;-65
2022/11/26 06:28:24;;;;;;;15.40;5.60;;;6.80;99.90;;;;;;5013279;28;20994;-65
2022/11/26 06:30:50;;;;;;;19.50;5.90;;;6.90;99.90;;;;;;5012067;28;20506;-67
2022/11/26 06:33:16;;;;;;;21.10;5.50;;;6.90;99.90;;;;;;5012371;28;20261;-68
2022/11/26 06:35:42;;;;;;;15.10;5.80;;;6.90;99.90;;;;;;5013721;28;20199;-66
2022/11/26 06:38:08;;;;;;;6.67;4.93;;;6.90;99.90;;;;;;5011781;28;20569;-65
2022/11/26 06:40:33;;;;;;;9.20;5.10;;;6.80;99.90;;;;;;5011830;28;20514;-66
2022/11/26 06:42:59;;;;;;;10.70;4.83;;;6.70;99.90;;;;;;5012411;28;20206;-66
2022/11/26 06:45:25;;;;;;;8.03;4.60;;;6.70;99.90;;;;;;5012660;28;20183;-66
2022/11/26 06:47:51;;;;;;;22.60;5.67;;;6.60;99.90;;;;;;5011059;28;20207;-66
2022/11/26 06:50:19;;;;;;;18.40;5.40;;;6.60;99.90;;;;;;5012299;28;20195;-65
2022/11/26 06:52:48;;;;;;;11.83;6.70;;;6.60;99.90;;;;;;5011521;28;20435;-65
2022/11/26 06:55:14;;;;;;;10.00;4.70;;;6.60;99.90;;;;;;5010809;28;20541;-65
2022/11/26 06:57:40;;;;;;;9.47;5.23;;;6.50;99.90;;;;;;5010751;28;20570;-66
2022/11/26 07:00:06;;;;;;;5.80;4.73;;;6.60;99.90;;;;;;5011631;28;20176;-65
2022/11/26 07:02:32;;;;;;;19.33;6.63;;;6.60;99.90;;;;;;5006921;28;20672;-65
2022/11/26 07:04:57;;;;;;;10.53;5.00;;;6.60;99.90;;;;;;5012530;28;20411;-65
2022/11/26 07:07:23;;;;;;;12.27;4.93;;;6.60;99.90;;;;;;5011230;28;20669;-66
2022/11/26 07:09:49;;;;;;;10.63;6.00;;;6.60;99.90;;;;;;5011115;28;20200;-66
2022/11/26 07:12:15;;;;;;;24.63;6.93;;;6.70;99.90;;;;;;5010416;28;20172;-65
2022/11/26 07:14:42;;;;;;;9.27;5.37;;;6.60;99.90;;;;;;5011808;28;20160;-65
2022/11/26 07:17:07;;;;;;;14.10;6.27;;;6.70;99.90;;;;;;5009494;28;20570;-66
2022/11/26 07:19:33;;;;;;;14.73;5.60;;;6.70;99.90;;;;;;5011805;28;20415;-66
2022/11/26 07:21:59;;;;;;;7.73;5.50;;;6.70;99.90;;;;;;5011024;28;20180;-65
2022/11/26 07:24:24;;;;;;;19.30;6.20;;;6.70;83.10;;;;;;5009825;28;20238;-66
2022/11/26 07:26:50;;;;;;;16.10;5.27;;;6.80;53.40;;;;;;5010173;28;20200;-66
2022/11/26 07:29:16;;;;;;;10.20;5.07;;;6.80;1.00;;;;;;5011679;28;20173;-65
2022/11/26 07:31:41;;;;;;;9.83;5.43;;;6.80;1.00;;;;;;5007199;28;20203;-65
2022/11/26 07:34:07;;;;;;;13.87;6.20;;;8.40;1.00;;;;;;5016371;28;20164;-65
2022/11/26 07:36:33;;;;;;;9.73;4.73;;;9.60;1.00;;;;;;5010116;28;20195;-65
2022/11/26 07:39:00;;;;;;;15.50;5.87;;;10.20;1.00;;;;;;5010878;28;20801;-67
2022/11/26 07:41:28;;;;;;;15.47;5.13;;;8.90;1.00;;;;;;5009279;28;20720;-64
2022/11/26 07:43:54;;;;;;;12.33;5.20;;;8.00;99.90;;;;;;5010609;28;20419;-65
2022/11/26 07:46:23;;;;;;;29.87;7.30;;;7.50;99.90;;;;;;5023345;23;20578;-63
2022/11/26 07:48:49;;;;;;;54.83;9.50;;;7.40;1.00;;;;;;5010553;28;20617;-63
2022/11/26 07:51:21;;;;;;;46.80;9.10;;;7.30;99.90;;;;;;5009215;28;20392;-61
2022/11/26 07:53:47;;;;;;;25.77;6.57;;;7.20;1.00;;;;;;5009450;28;20936;-63
2022/11/26 07:56:13;;;;;;;46.47;7.63;;;7.10;6.70;;;;;;5010502;28;20419;-63
2022/11/26 07:58:38;;;;;;;25.63;8.33;;;7.10;67.80;;;;;;5010618;28;20430;-65
2022/11/26 08:01:09;;;;;;;15.80;7.00;;;7.10;1.00;;;;;;5011562;28;20176;-63
2022/11/26 08:03:43;;;;;;;14.83;6.40;;;7.00;99.90;;;;;;5011429;28;21001;-65
2022/11/26 08:06:11;;;;;;;17.13;7.17;;;7.00;99.90;;;;;;4991149;28;20423;-63
2022/11/26 08:08:37;;;;;;;10.03;5.20;;;7.10;99.90;;;;;;4990464;28;20431;-65
2022/11/26 08:11:04;;;;;;;8.90;5.60;;;7.20;99.90;;;;;;4996702;28;20436;-64
2022/11/26 08:13:30;;;;;;;8.57;5.43;;;9.30;99.90;;;;;;5008821;28;20438;-64
2022/11/26 08:15:56;;;;;;;8.50;5.50;;;11.70;1.00;;;;;;5010039;28;20407;-65
2022/11/26 08:18:22;;;;;;;7.67;5.07;;;13.60;1.00;;;;;;5010034;28;20172;-65
2022/11/26 08:20:55;;;;;;;7.03;5.00;;;14.80;99.90;;;;;;5009312;28;20473;-65
2022/11/26 08:23:21;;;;;;;7.73;6.03;;;15.90;99.90;;;;;;5008910;28;20211;-65
2022/11/26 08:25:46;;;;;;;20.17;7.00;;;16.70;99.90;;;;;;5009093;28;20920;-65
2022/11/26 08:28:12;;;;;;;19.63;8.27;;;17.50;99.90;;;;;;5009782;28;20195;-65
2022/11/26 08:30:37;;;;;;;11.90;6.53;;;17.70;99.90;;;;;;5008851;28;20683;-65
2022/11/26 08:33:03;;;;;;;27.83;8.13;;;17.60;99.90;;;;;;5008745;28;20287;-65
2022/11/26 08:35:29;;;;;;;35.30;8.47;;;16.90;99.90;;;;;;5010233;28;20180;-65
2022/11/26 08:37:54;;;;;;;48.73;9.70;;;16.30;99.90;;;;;;5008190;28;20211;-66
2022/11/26 08:40:20;;;;;;;8.13;6.10;;;14.90;99.90;;;;;;5010011;28;20599;-66
2022/11/26 08:42:46;;;;;;;37.13;7.80;;;13.90;99.90;;;;;;5009933;28;20661;-65
2022/11/26 08:45:11;;;;;;;25.13;7.70;;;13.60;99.90;;;;;;5010759;28;20206;-65
2022/11/26 08:47:37;;;;;;;20.00;8.20;;;13.10;99.90;;;;;;5010243;28;20569;-65
2022/11/26 08:50:04;;;;;;;30.07;8.77;;;13.20;99.90;;;;;;5009341;28;20172;-65
2022/11/26 08:52:29;;;;;;;20.57;7.00;;;12.90;99.90;;;;;;5009033;28;20179;-65
2022/11/26 08:54:55;;;;;;;29.27;6.93;;;14.30;99.90;;;;;;5008015;28;20427;-65
2022/11/26 08:57:20;;;;;;;21.40;7.30;;;15.50;99.90;;;;;;5009635;28;20275;-65
2022/11/26 08:59:46;;;;;;;7.67;5.60;;;15.70;99.90;;;;;;5009982;28;20180;-66
2022/11/26 09:02:12;;;;;;;15.77;5.90;;;15.90;99.90;;;;;;5005000;28;20188;-67
2022/11/26 09:04:38;;;;;;;7.97;6.30;;;16.70;99.90;;;;;;5009146;28;20286;-65
2022/11/26 09:07:03;;;;;;;9.10;5.67;;;17.40;99.90;;;;;;5009284;28;20256;-65
2022/11/26 09:09:29;;;;;;;7.10;4.93;;;17.30;99.90;;;;;;5009278;28;20663;-64
2022/11/26 09:11:59;;;;;;;25.73;6.00;;;17.10;99.90;;;;;;5008917;28;20160;-64
2022/11/26 09:14:28;;;;;;;9.67;6.13;;;16.70;99.90;;;;;;5009771;28;20635;-65
2022/11/26 09:16:55;;;;;;;73.77;12.30;;;16.20;99.90;;;;;;5009725;28;20427;-64
2022/11/26 09:19:21;;;;;;;76.83;12.30;;;16.30;99.90;;;;;;5009773;28;20430;-65
2022/11/26 09:21:47;;;;;;;103.90;18.20;;;16.20;99.90;;;;;;5008920;28;20411;-64
2022/11/26 09:24:13;;;;;;;109.13;16.20;;;16.10;99.90;;;;;;5009061;28;20506;-65
2022/11/26 09:26:39;;;;;;;21.23;6.70;;;16.10;99.90;;;;;;5007248;28;20203;-65
2022/11/26 09:29:05;;;;;;;37.97;8.33;;;16.00;99.90;;;;;;5008882;28;20411;-64
2022/11/26 09:31:32;;;;;;;13.53;6.20;;;16.10;99.90;;;;;;5008883;28;20487;-65
2022/11/26 09:33:59;;;;;;;12.50;5.73;;;16.00;99.90;;;;;;5009423;28;20529;-65
2022/11/26 09:36:25;;;;;;;17.90;6.50;;;16.20;99.90;;;;;;5007622;28;20453;-65
2022/11/26 09:38:55;;;;;;;23.70;9.83;;;16.10;99.90;;;;;;5007091;28;20451;-65
2022/11/26 09:41:33;;;;;;;14.50;7.47;;;16.10;99.90;;;;;;5008610;28;20454;-65
2022/11/26 09:44:21;;;;;;;88.40;15.33;;;16.00;99.90;;;;;;5008970;28;20426;-65
2022/11/26 09:47:03;;;;;;;50.00;11.33;;;15.90;99.90;;;;;;5007911;28;20831;-64
2022/11/26 09:49:35;;;;;;;18.53;8.03;;;15.80;99.90;;;;;;5009370;28;20399;-64
2022/11/26 09:52:04;;;;;;;35.93;7.03;;;15.80;99.90;;;;;;5008459;28;20733;-64
2022/11/26 09:54:30;;;;;;;10.63;5.40;;;15.80;99.90;;;;;;5011452;28;20495;-65
2022/11/26 09:57:08;;;;;;;6.47;5.87;;;15.80;99.90;;;;;;5013590;28;20441;-64
2022/11/26 09:59:37;;;;;;;12.67;5.03;;;15.80;99.90;;;;;;5013324;28;20514;-64
2022/11/26 10:02:08;;;;;;;11.13;5.23;;;15.20;99.90;;;;;;5012237;28;20414;-64
2022/11/26 10:04:36;;;;;;;11.47;5.50;;;15.10;99.90;;;;;;5013061;28;21042;-65
2022/11/26 10:07:19;;;;;;;10.43;5.53;;;15.30;99.90;;;;;;5012823;28;20865;-65
2022/11/26 10:10:04;;;;;;;31.13;6.20;;;15.30;99.90;;;;;;5012534;28;20403;-65
2022/11/26 10:12:38;;;;;;;15.63;5.10;;;15.00;99.90;;;;;;5011664;28;20407;-65
2022/11/26 10:15:27;;;;;;;59.97;9.00;;;14.60;99.90;;;;;;5013218;28;20492;-65
2022/11/26 10:18:12;;;;;;;48.07;9.43;;;14.50;99.90;;;;;;5012731;28;20430;-65
2022/11/26 10:20:53;;;;;;;14.83;5.50;;;14.80;99.90;;;;;;5012191;28;20411;-65
2022/11/26 10:23:44;;;;;;;31.93;6.53;;;14.90;99.90;;;;;;5012387;28;20411;-65
2022/11/26 10:26:33;;;;;;;25.40;7.30;;;14.90;99.90;;;;;;5012744;28;20438;-65
2022/11/26 10:29:23;;;;;;;39.47;7.67;;;14.80;99.90;;;;;;5012376;28;20462;-64
2022/11/26 10:31:58;;;;;;;136.77;17.67;;;14.40;99.90;;;;;;5008592;28;20423;-65
2022/11/26 10:34:36;;;;;;;56.17;10.97;;;14.10;99.90;;;;;;5012216;28;20403;-65
2022/11/26 10:37:02;;;;;;;17.93;5.60;;;13.90;99.90;;;;;;5012183;28;20426;-65
2022/11/26 10:39:28;;;;;;;13.80;4.60;;;13.70;99.90;;;;;;5012097;28;20907;-65
2022/11/26 10:41:54;;;;;;;18.00;5.20;;;13.60;99.90;;;;;;5011930;28;20416;-65
2022/11/26 10:44:41;;;;;;;40.43;8.50;;;13.50;99.90;;;;;;5012195;28;20168;-65
2022/11/26 10:47:28;;;;;;;72.97;13.77;;;13.30;99.90;;;;;;5012101;28;20459;-65
2022/11/26 10:50:02;;;;;;;60.73;10.40;;;13.00;99.90;;;;;;5012170;28;20457;-65
2022/11/26 10:52:31;;;;;;;48.10;11.00;;;12.80;99.90;;;;;;5011109;28;20407;-64
2022/11/26 10:55:22;;;;;;;53.43;9.80;;;12.70;99.90;;;;;;5012128;28;20468;-65
2022/11/26 10:57:55;;;;;;;43.17;8.60;;;12.70;99.90;;;;;;5011855;28;20949;-65
2022/11/26 11:00:38;;;;;;;25.10;7.90;;;12.80;99.90;;;;;;5008119;28;20465;-65
2022/11/26 11:03:20;;;;;;;52.73;8.87;;;12.60;99.90;;;;;;4992005;28;20789;-65
2022/11/26 11:05:46;;;;;;;41.00;7.30;;;12.40;99.90;;;;;;4991402;28;20448;-65
2022/11/26 11:08:31;;;;;;;15.03;5.50;;;12.30;99.90;;;;;;4991743;28;20776;-65
2022/11/26 11:11:00;;;;;;;10.90;4.47;;;12.10;99.90;;;;;;4991314;28;20568;-65
2022/11/26 11:13:46;;;;;;;16.33;6.00;;;11.80;99.90;;;;;;4992121;28;20487;-66
2022/11/26 11:16:14;;;;;;;35.53;9.10;;;11.70;99.90;;;;;;4991902;28;20522;-66
2022/11/26 11:19:01;;;;;;;88.70;15.40;;;11.90;99.90;;;;;;4991962;28;20412;-66
2022/11/26 11:21:36;;;;;;;48.77;8.00;;;12.70;99.90;;;;;;4990662;28;20487;-64
2022/11/26 11:24:24;;;;;;;34.97;8.13;;;13.10;99.90;;;;;;4991308;28;20935;-64
2022/11/26 11:26:54;;;;;;;45.53;7.60;;;13.60;99.90;;;;;;4991815;28;20462;-64
2022/11/26 11:29:28;;;;;;;43.37;8.70;;;14.00;99.90;;;;;;4991898;28;20404;-64
2022/11/26 11:31:56;;;;;;;23.93;8.23;;;14.10;99.90;;;;;;4990819;28;20408;-64
2022/11/26 11:34:43;;;;;;;17.37;6.40;;;14.10;99.90;;;;;;4991393;28;20416;-64
2022/11/26 11:37:22;;;;;;;8.43;4.80;;;14.30;99.90;;;;;;4991510;28;20444;-64
2022/11/26 11:40:13;;;;;;;11.93;5.40;;;14.40;99.90;;;;;;4991348;28;20408;-65
2022/11/26 11:42:40;;;;;;;26.27;6.80;;;14.50;99.90;;;;;;4991391;28;20408;-65
2022/11/26 11:45:22;;;;;;;29.10;6.70;;;14.40;99.90;;;;;;4990469;28;20419;-64
2022/11/26 11:47:51;;;;;;;10.73;4.33;;;13.80;99.90;;;;;;4991117;28;21063;-65
2022/11/26 11:50:32;;;;;;;14.90;5.40;;;12.80;99.90;;;;;;4996495;28;20477;-65
2022/11/26 11:53:27;;;;;;;16.63;6.30;;;12.50;99.90;;;;;;5010868;28;20418;-64
2022/11/26 11:56:11;;;;;;;21.77;6.50;;;12.60;99.90;;;;;;5009872;28;20403;-64
2022/11/26 11:59:05;;;;;;;19.20;6.80;;;13.10;99.90;;;;;;5010592;28;20889;-64
2022/11/26 12:01:50;;;;;;;5.00;4.50;;;13.60;99.90;;;;;;5009220;28;20437;-64
2022/11/26 12:04:51;;;;;;;7.50;4.73;;;13.00;99.90;;;;;;5010435;28;20740;-66
2022/11/26 12:07:20;;;;;;;9.63;4.33;;;12.70;99.90;;;;;;5010560;28;20818;-66
2022/11/26 12:09:49;;;;;;;10.20;4.20;;;12.80;99.90;;;;;;5010659;28;20459;-64
2022/11/26 12:12:23;;;;;;;6.60;4.00;;;12.70;99.90;;;;;;5010154;28;20407;-63
2022/11/26 12:15:20;;;;;;;8.57;4.80;;;12.30;99.90;;;;;;5010917;28;20414;-64
2022/11/26 12:17:49;;;;;;;12.13;5.23;;;12.40;99.90;;;;;;5008361;28;20453;-64
2022/11/26 12:20:24;;;;;;;7.87;4.87;;;12.60;99.90;;;;;;5010435;28;20407;-64
2022/11/26 12:23:11;;;;;;;10.33;4.70;;;13.00;99.90;;;;;;5010083;28;20410;-64
2022/11/26 12:25:38;;;;;;;8.67;4.47;;;13.10;99.90;;;;;;5010520;28;20404;-63
2022/11/26 12:28:22;;;;;;;15.27;5.10;;;13.10;99.90;;;;;;5005747;28;20550;-63
2022/11/26 12:31:00;;;;;;;81.30;12.33;;;12.70;99.90;;;;;;5009774;28;20453;-67
2022/11/26 12:33:45;;;;;;;174.27;21.47;;;12.80;99.90;;;;;;5010183;28;20414;-64
2022/11/26 12:36:22;;;;;;;42.57;7.10;;;13.10;99.90;;;;;;5010650;28;20866;-64
2022/11/26 12:38:53;;;;;;;56.90;10.07;;;13.20;99.90;;;;;;5009766;28;20883;-64
2022/11/26 12:41:43;;;;;;;25.90;7.63;;;13.20;99.90;;;;;;5009679;28;20437;-64
2022/11/26 12:44:36;;;;;;;9.30;4.90;;;13.00;99.90;;;;;;5010494;28;20451;-64
2022/11/26 12:47:26;;;;;;;5.73;4.30;;;11.90;99.90;;;;;;5009982;28;20489;-63
2022/11/26 12:50:04;;;;;;;11.00;5.03;;;11.60;99.90;;;;;;5010545;28;20414;-64
2022/11/26 12:53:07;;;;;;;6.30;3.90;;;11.40;99.90;;;;;;5009206;28;20399;-64
2022/11/26 12:55:53;;;;;;;7.63;5.60;;;11.20;99.90;;;;;;5010342;28;20475;-64
2022/11/26 12:58:40;;;;;;;7.40;3.63;;;11.30;99.90;;;;;;5010973;28;20494;-65
2022/11/26 13:01:09;;;;;;;4.87;3.70;;;11.40;99.90;;;;;;5008078;28;20430;-63
2022/11/26 13:03:35;;;;;;;9.53;4.60;;;11.40;99.90;;;;;;5009538;28;20484;-64
2022/11/26 13:06:05;;;;;;;16.30;4.87;;;11.10;99.90;;;;;;5010359;28;20915;-64